Time;durP1;ratioP1;P1;durP2;ratioP2;P2;SDS_P1;SDS_P2;PMS_P1;PMS_P2;Temp;Humidity;BMP_temperature;BMP_pressure;BME280_temperature;BME280_humidity;BME280_pressure;Samples;Min_cycle;Max_cycle;Signal;HPM_P1;HPM_P2
2021/08/14 00:01:14;;;;;;;16.73;8.57;;;25.80;58.90;;;;;;5094930;28;20539;-71
2021/08/14 00:03:39;;;;;;;12.00;8.95;;;25.80;58.30;;;;;;5094241;28;20024;-72
2021/08/14 00:06:05;;;;;;;10.52;8.80;;;25.80;58.60;;;;;;5094941;28;20100;-72
2021/08/14 00:08:31;;;;;;;14.57;9.23;;;25.80;58.70;;;;;;5075880;28;20389;-70
2021/08/14 00:10:57;;;;;;;13.00;9.02;;;25.90;58.70;;;;;;5094851;28;20024;-70
2021/08/14 00:13:22;;;;;;;12.57;8.77;;;25.90;58.60;;;;;;5094462;28;20024;-71
2021/08/14 00:15:48;;;;;;;12.07;8.45;;;25.90;58.70;;;;;;5094578;28;20028;-71
2021/08/14 00:18:14;;;;;;;11.70;9.07;;;26.00;58.60;;;;;;5093616;28;20020;-72
2021/08/14 00:20:40;;;;;;;10.75;8.30;;;26.00;58.80;;;;;;5094615;28;20024;-72
2021/08/14 00:23:06;;;;;;;9.90;7.95;;;26.00;58.40;;;;;;5094472;28;20027;-71
2021/08/14 00:25:31;;;;;;;11.55;7.93;;;26.00;58.30;;;;;;5076451;28;20427;-72
2021/08/14 00:27:57;;;;;;;15.77;10.55;;;26.10;58.50;;;;;;5094478;28;20020;-71
2021/08/14 00:30:23;;;;;;;13.55;9.48;;;26.00;59.10;;;;;;5093557;28;20028;-71
2021/08/14 00:32:51;;;;;;;16.73;9.70;;;26.00;59.70;;;;;;5094365;28;20024;-70
2021/08/14 00:35:17;;;;;;;13.15;10.23;;;25.90;59.00;;;;;;5076230;28;20040;-70
2021/08/14 00:37:42;;;;;;;10.23;9.00;;;25.90;59.20;;;;;;5076083;28;20489;-71
2021/08/14 00:40:09;;;;;;;12.35;9.25;;;25.90;59.10;;;;;;5093457;28;20039;-72
2021/08/14 00:42:35;;;;;;;12.27;9.13;;;25.80;59.20;;;;;;5094179;28;20107;-70
2021/08/14 00:45:01;;;;;;;12.60;8.98;;;25.80;59.30;;;;;;5075996;28;20028;-73
2021/08/14 00:47:28;;;;;;;12.77;8.13;;;25.80;59.50;;;;;;5075953;28;20385;-71
2021/08/14 00:49:54;;;;;;;15.70;7.95;;;25.70;59.40;;;;;;5094126;28;20081;-73
2021/08/14 00:52:21;;;;;;;10.60;6.60;;;25.70;59.40;;;;;;5093542;28;20030;-72
2021/08/14 00:54:47;;;;;;;11.43;7.10;;;25.60;59.10;;;;;;5093809;28;20405;-72
2021/08/14 00:57:16;;;;;;;11.23;8.40;;;25.60;59.00;;;;;;5093966;28;20603;-70
2021/08/14 00:59:46;;;;;;;13.07;8.10;;;25.60;59.40;;;;;;5093947;28;20093;-70
2021/08/14 01:02:12;;;;;;;8.98;7.15;;;25.60;59.40;;;;;;5093100;28;20020;-72
2021/08/14 01:04:38;;;;;;;11.25;7.20;;;25.50;59.20;;;;;;5093838;28;20351;-72
2021/08/14 01:07:04;;;;;;;14.60;8.52;;;25.50;59.10;;;;;;5093728;28;20023;-72
2021/08/14 01:09:30;;;;;;;11.50;8.07;;;25.40;59.40;;;;;;5093721;28;20020;-71
2021/08/14 01:12:01;;;;;;;12.30;8.93;;;25.40;59.40;;;;;;5093632;28;20016;-72
2021/08/14 01:14:29;;;;;;;9.13;7.55;;;25.40;59.50;;;;;;5093573;28;20020;-72
2021/08/14 01:16:55;;;;;;;9.30;7.57;;;25.40;59.50;;;;;;5092874;28;20197;-73
2021/08/14 01:19:21;;;;;;;11.45;7.85;;;25.30;59.50;;;;;;5093508;28;20388;-70
2021/08/14 01:21:48;;;;;;;8.75;6.63;;;25.30;59.50;;;;;;5075173;28;20048;-72
2021/08/14 01:24:15;;;;;;;15.75;7.97;;;25.20;59.60;;;;;;5093403;28;20089;-72
2021/08/14 01:26:42;;;;;;;16.92;8.43;;;25.20;59.90;;;;;;5092751;28;20077;-73
2021/08/14 01:29:08;;;;;;;10.18;8.00;;;25.20;60.00;;;;;;5092971;28;20412;-72
2021/08/14 01:31:34;;;;;;;11.77;8.45;;;25.20;60.20;;;;;;5093392;28;20031;-70
2021/08/14 01:34:00;;;;;;;11.27;7.85;;;25.20;60.10;;;;;;5093323;28;20028;-71
2021/08/14 01:36:26;;;;;;;10.73;8.07;;;25.10;60.00;;;;;;5092588;28;20028;-72
2021/08/14 01:39:00;;;;;;;10.63;7.53;;;25.10;60.00;;;;;;5093089;28;20028;-73
2021/08/14 01:41:26;;;;;;;9.02;7.30;;;25.00;60.20;;;;;;5075360;28;20488;-71
2021/08/14 01:44:12;;;;;;;10.77;8.10;;;25.00;60.00;;;;;;5093177;28;20390;-70
2021/08/14 01:46:41;;;;;;;10.55;7.22;;;25.00;60.60;;;;;;5074723;28;20023;-70
2021/08/14 01:49:07;;;;;;;10.68;7.18;;;25.00;60.10;;;;;;5075161;28;20048;-72
2021/08/14 01:51:35;;;;;;;7.88;6.57;;;25.00;60.20;;;;;;5072959;28;20028;-72
2021/08/14 01:54:04;;;;;;;10.38;7.40;;;25.00;60.20;;;;;;5072712;28;20040;-71
2021/08/14 01:56:30;;;;;;;12.70;8.38;;;25.00;60.50;;;;;;5072980;28;20025;-71
2021/08/14 01:58:56;;;;;;;22.83;9.50;;;24.90;60.90;;;;;;5072914;28;20016;-71
2021/08/14 02:01:23;;;;;;;14.10;9.25;;;24.90;61.50;;;;;;5074004;28;20533;-72
2021/08/14 02:03:49;;;;;;;13.93;9.18;;;24.90;61.40;;;;;;5092945;28;20020;-69
2021/08/14 02:06:17;;;;;;;13.75;8.95;;;24.90;61.40;;;;;;5093011;28;20474;-70
2021/08/14 02:08:43;;;;;;;11.70;8.30;;;24.90;61.50;;;;;;5092977;28;20024;-70
2021/08/14 02:11:18;;;;;;;12.20;8.27;;;25.00;61.70;;;;;;5092977;28;20024;-72
2021/08/14 02:13:45;;;;;;;10.68;7.57;;;25.00;61.60;;;;;;5092991;28;20026;-71
2021/08/14 02:16:11;;;;;;;8.15;6.75;;;25.00;61.40;;;;;;5074049;28;20082;-72
2021/08/14 02:18:38;;;;;;;13.98;7.47;;;25.00;61.40;;;;;;5093002;28;20016;-72
2021/08/14 02:21:04;;;;;;;11.43;7.72;;;25.10;61.50;;;;;;5092904;28;20473;-72
2021/08/14 02:23:30;;;;;;;12.13;8.52;;;25.10;61.40;;;;;;5092813;28;20028;-70
2021/08/14 02:25:56;;;;;;;9.75;7.78;;;25.10;61.40;;;;;;5092815;28;20073;-70
2021/08/14 02:28:22;;;;;;;10.48;8.52;;;25.20;61.50;;;;;;5074631;28;20397;-72
2021/08/14 02:30:47;;;;;;;10.18;8.25;;;25.20;61.50;;;;;;5092129;28;20031;-70
2021/08/14 02:33:13;;;;;;;10.30;7.93;;;25.20;61.40;;;;;;5092588;28;20073;-73
2021/08/14 02:35:42;;;;;;;15.00;8.88;;;25.30;61.30;;;;;;5092758;28;20028;-72
2021/08/14 02:38:08;;;;;;;14.32;9.20;;;25.20;61.30;;;;;;5092639;28;20083;-72
2021/08/14 02:40:35;;;;;;;11.50;8.90;;;25.20;61.60;;;;;;5074546;28;20024;-73
2021/08/14 02:43:02;;;;;;;11.98;8.75;;;25.20;61.90;;;;;;5077566;28;20024;-71
2021/08/14 02:45:28;;;;;;;11.75;7.57;;;25.30;62.00;;;;;;5078151;28;20381;-72
2021/08/14 02:47:57;;;;;;;10.75;7.82;;;25.20;61.70;;;;;;5096212;28;20024;-70
2021/08/14 02:50:23;;;;;;;10.63;7.18;;;25.20;61.80;;;;;;5096388;28;20024;-73
2021/08/14 02:52:50;;;;;;;10.88;7.78;;;25.20;61.40;;;;;;5095650;28;20040;-69
2021/08/14 02:55:16;;;;;;;11.38;7.60;;;25.20;61.30;;;;;;5096102;28;20040;-71
2021/08/14 02:57:41;;;;;;;12.50;8.15;;;25.20;61.50;;;;;;5096233;28;20028;-73
2021/08/14 03:00:08;;;;;;;9.05;7.47;;;25.20;61.50;;;;;;5096198;28;20048;-71
2021/08/14 03:02:33;;;;;;;9.45;6.78;;;25.10;61.20;;;;;;5077177;28;20028;-71
2021/08/14 03:04:59;;;;;;;8.90;6.88;;;25.10;61.30;;;;;;5096116;28;20027;-69
2021/08/14 03:07:25;;;;;;;9.25;7.13;;;25.00;61.20;;;;;;5095322;28;20024;-71
2021/08/14 03:09:51;;;;;;;10.73;7.75;;;25.00;61.30;;;;;;5096081;28;20513;-70
2021/08/14 03:12:17;;;;;;;12.98;8.85;;;25.00;61.50;;;;;;5095966;28;20023;-70
2021/08/14 03:14:43;;;;;;;13.55;7.88;;;25.00;62.10;;;;;;5095986;28;20376;-70
2021/08/14 03:17:08;;;;;;;9.68;7.18;;;24.90;61.90;;;;;;5095930;28;20089;-71
2021/08/14 03:19:35;;;;;;;9.07;7.18;;;24.90;61.80;;;;;;5095813;28;20020;-69
2021/08/14 03:22:00;;;;;;;8.70;7.13;;;24.80;61.70;;;;;;5077135;28;20028;-69
2021/08/14 03:24:26;;;;;;;13.55;7.13;;;24.80;61.80;;;;;;5095816;28;20031;-71
2021/08/14 03:26:52;;;;;;;11.07;7.07;;;24.80;61.80;;;;;;5095617;28;20020;-71
2021/08/14 03:29:18;;;;;;;9.05;7.03;;;24.80;61.70;;;;;;5077504;28;20103;-71
2021/08/14 03:31:43;;;;;;;10.45;7.50;;;24.70;61.80;;;;;;5095597;28;20390;-70
2021/08/14 03:34:09;;;;;;;12.52;8.00;;;24.70;62.60;;;;;;5095528;28;20101;-71
2021/08/14 03:36:35;;;;;;;11.00;8.38;;;24.70;62.00;;;;;;5076528;28;20426;-71
2021/08/14 03:39:01;;;;;;;13.05;8.55;;;24.60;62.30;;;;;;5095356;28;20031;-70
2021/08/14 03:41:27;;;;;;;11.95;8.15;;;24.60;62.60;;;;;;5077304;28;20480;-71
2021/08/14 03:43:52;;;;;;;8.63;7.15;;;24.50;62.60;;;;;;5095277;28;20024;-70
2021/08/14 03:46:18;;;;;;;12.45;7.53;;;24.50;62.60;;;;;;5077171;28;20093;-70
2021/08/14 03:48:44;;;;;;;8.80;7.15;;;24.50;62.60;;;;;;5094822;28;20107;-71
2021/08/14 03:51:10;;;;;;;12.27;7.47;;;24.50;62.60;;;;;;5095137;28;20560;-72
2021/08/14 03:53:35;;;;;;;11.27;7.10;;;24.50;62.70;;;;;;5076616;28;20040;-72
2021/08/14 03:56:02;;;;;;;13.45;7.22;;;24.40;62.70;;;;;;5095173;28;20114;-72
2021/08/14 03:58:32;;;;;;;16.42;8.73;;;24.40;62.80;;;;;;5094347;28;20031;-73
2021/08/14 04:00:58;;;;;;;15.18;8.85;;;24.40;63.50;;;;;;5095060;28;20020;-72
2021/08/14 04:03:24;;;;;;;12.95;8.27;;;24.40;63.50;;;;;;5094829;28;20028;-70
2021/08/14 04:05:50;;;;;;;8.80;7.53;;;24.40;63.50;;;;;;5094932;28;20020;-71
2021/08/14 04:08:18;;;;;;;16.13;7.95;;;24.40;63.50;;;;;;5094900;28;20422;-72
2021/08/14 04:10:43;;;;;;;8.85;6.97;;;24.40;63.40;;;;;;5094868;28;20051;-71
2021/08/14 04:13:09;;;;;;;12.05;8.38;;;24.40;63.30;;;;;;5094058;28;20028;-72
2021/08/14 04:15:35;;;;;;;11.02;8.20;;;24.40;63.60;;;;;;5094770;28;20546;-71
2021/08/14 04:18:01;;;;;;;12.15;7.80;;;24.40;63.70;;;;;;5094589;28;20535;-71
2021/08/14 04:20:27;;;;;;;10.93;8.07;;;24.40;63.60;;;;;;5076559;28;20020;-71
2021/08/14 04:22:53;;;;;;;11.60;7.65;;;24.40;63.70;;;;;;5094525;28;20028;-72
2021/08/14 04:25:18;;;;;;;12.63;7.13;;;24.40;63.60;;;;;;5094348;28;20024;-70
2021/08/14 04:27:44;;;;;;;12.68;7.72;;;24.40;63.60;;;;;;5093744;28;20023;-71
2021/08/14 04:30:11;;;;;;;9.98;7.60;;;24.40;63.60;;;;;;5094488;28;20218;-71
2021/08/14 04:32:37;;;;;;;12.32;6.80;;;24.40;63.70;;;;;;5094294;28;20489;-71
2021/08/14 04:35:04;;;;;;;9.27;7.00;;;24.50;63.60;;;;;;5094317;28;20557;-73
2021/08/14 04:37:30;;;;;;;10.55;7.57;;;24.50;63.80;;;;;;5094301;28;20379;-70
2021/08/14 04:39:59;;;;;;;9.20;7.53;;;24.50;63.80;;;;;;5094197;28;20041;-73
2021/08/14 04:42:25;;;;;;;11.98;8.02;;;24.50;63.90;;;;;;5093769;28;20035;-73
2021/08/14 04:44:50;;;;;;;16.23;8.63;;;24.50;63.90;;;;;;5094181;28;20028;-70
2021/08/14 04:47:16;;;;;;;10.77;7.47;;;24.60;64.10;;;;;;5094127;28;20031;-70
2021/08/14 04:49:42;;;;;;;11.18;7.75;;;24.60;63.90;;;;;;5094035;28;20020;-70
2021/08/14 04:52:08;;;;;;;9.50;7.82;;;24.70;64.00;;;;;;5094031;28;20048;-70
2021/08/14 04:54:34;;;;;;;15.32;9.38;;;24.70;64.00;;;;;;5093840;28;20036;-72
2021/08/14 04:56:59;;;;;;;10.30;8.07;;;24.80;64.10;;;;;;5093218;28;20320;-72
2021/08/14 04:59:25;;;;;;;13.90;9.02;;;24.90;64.00;;;;;;5093811;28;20020;-72
2021/08/14 05:01:51;;;;;;;16.52;9.50;;;24.90;63.80;;;;;;5093829;28;20470;-72
2021/08/14 05:04:17;;;;;;;19.13;10.73;;;25.00;63.90;;;;;;5093092;28;20025;-71
2021/08/14 05:06:42;;;;;;;14.77;9.73;;;25.00;64.60;;;;;;5093636;28;20016;-71
2021/08/14 05:09:08;;;;;;;11.10;9.10;;;25.00;63.80;;;;;;5093720;28;20362;-70
2021/08/14 05:11:34;;;;;;;14.63;9.75;;;25.10;63.70;;;;;;5075144;28;20039;-70
2021/08/14 05:14:00;;;;;;;13.65;9.23;;;25.20;63.70;;;;;;5093572;28;20495;-71
2021/08/14 05:16:25;;;;;;;11.23;8.27;;;25.20;63.60;;;;;;5093613;28;20024;-73
2021/08/14 05:18:52;;;;;;;10.55;8.77;;;25.30;63.50;;;;;;5093580;28;20123;-72
2021/08/14 05:21:17;;;;;;;11.90;8.52;;;25.40;63.30;;;;;;5093561;28;20028;-70
2021/08/14 05:23:43;;;;;;;10.18;8.35;;;25.50;63.10;;;;;;5093263;28;20031;-73
2021/08/14 05:26:09;;;;;;;11.50;8.07;;;25.60;63.10;;;;;;5092755;28;20039;-72
2021/08/14 05:28:35;;;;;;;16.83;7.70;;;25.60;62.90;;;;;;5075264;28;20377;-71
2021/08/14 05:31:01;;;;;;;10.32;7.50;;;25.70;62.60;;;;;;5093363;28;20024;-73
2021/08/14 05:33:27;;;;;;;13.38;8.00;;;25.80;62.50;;;;;;5074572;28;20123;-70
2021/08/14 05:35:53;;;;;;;11.77;7.32;;;25.90;62.40;;;;;;5093281;28;20435;-73
2021/08/14 05:38:18;;;;;;;11.65;8.38;;;26.00;62.30;;;;;;5074979;28;20115;-71
2021/08/14 05:40:44;;;;;;;14.82;8.55;;;26.00;62.20;;;;;;5092548;28;20024;-72
2021/08/14 05:43:10;;;;;;;17.10;10.27;;;26.10;62.00;;;;;;5074931;28;20032;-73
2021/08/14 05:45:36;;;;;;;13.80;9.68;;;26.10;61.70;;;;;;5093137;28;20031;-73
2021/08/14 05:48:06;;;;;;;19.95;9.60;;;26.20;61.50;;;;;;5072829;28;20024;-71
2021/08/14 05:50:33;;;;;;;14.18;9.40;;;26.20;61.30;;;;;;5080440;28;20065;-73
2021/08/14 05:52:59;;;;;;;16.13;8.27;;;26.20;61.30;;;;;;5087092;28;20032;-71
2021/08/14 05:55:24;;;;;;;14.68;9.70;;;26.30;61.30;;;;;;5055692;28;20052;-72
2021/08/14 05:57:53;;;;;;;17.15;9.02;;;26.30;61.30;;;;;;5072934;28;20126;-71
2021/08/14 06:00:20;;;;;;;11.57;9.02;;;26.30;61.00;;;;;;5072819;28;20028;-71
2021/08/14 06:02:45;;;;;;;8.55;7.32;;;26.30;60.90;;;;;;5072690;28;20465;-71
2021/08/14 06:05:11;;;;;;;13.07;8.25;;;26.40;60.80;;;;;;5072766;28;20091;-73
2021/08/14 06:07:37;;;;;;;13.18;8.15;;;26.40;60.50;;;;;;5061701;28;20032;-71
2021/08/14 06:10:09;;;;;;;11.65;7.40;;;26.40;60.40;;;;;;5092911;28;20092;-71
2021/08/14 06:12:35;;;;;;;11.73;6.80;;;26.40;60.30;;;;;;5092871;28;20048;-72
2021/08/14 06:15:01;;;;;;;15.88;9.00;;;26.50;60.30;;;;;;5074807;28;20528;-71
2021/08/14 06:17:27;;;;;;;12.95;8.43;;;26.40;60.20;;;;;;5077015;28;20546;-72
2021/08/14 06:19:52;;;;;;;11.60;7.75;;;26.50;60.20;;;;;;5096872;28;20032;-71
2021/08/14 06:22:18;;;;;;;11.23;8.02;;;26.50;60.30;;;;;;5096021;28;20474;-71
2021/08/14 06:24:44;;;;;;;18.38;9.02;;;26.50;60.30;;;;;;5096779;28;20095;-70
2021/08/14 06:27:10;;;;;;;25.23;11.32;;;26.60;60.30;;;;;;5096766;28;20385;-70
2021/08/14 06:29:35;;;;;;;23.65;12.32;;;26.50;60.20;;;;;;5096607;28;20494;-72
2021/08/14 06:32:01;;;;;;;25.42;10.85;;;26.60;60.00;;;;;;5096694;28;20035;-72
2021/08/14 06:34:27;;;;;;;15.63;9.02;;;26.70;60.10;;;;;;5096651;28;20442;-73
2021/08/14 06:36:53;;;;;;;15.07;8.93;;;26.70;60.00;;;;;;5095801;28;20028;-71
2021/08/14 06:39:18;;;;;;;16.67;9.77;;;26.70;59.70;;;;;;5096419;28;20024;-72
2021/08/14 06:41:44;;;;;;;15.98;9.13;;;26.70;59.60;;;;;;5096505;28;20443;-71
2021/08/14 06:44:10;;;;;;;11.55;8.95;;;26.70;59.60;;;;;;5096282;28;20035;-71
2021/08/14 06:46:36;;;;;;;10.30;7.88;;;26.70;59.60;;;;;;5096303;28;20020;-70
2021/08/14 06:49:03;;;;;;;10.40;8.48;;;26.70;59.50;;;;;;5096186;28;20480;-69
2021/08/14 06:51:30;;;;;;;14.90;8.55;;;26.70;59.60;;;;;;5095417;28;20105;-70
2021/08/14 06:53:58;;;;;;;11.82;8.65;;;26.70;59.60;;;;;;5095520;28;20044;-72
2021/08/14 06:56:24;;;;;;;15.18;10.02;;;26.60;59.50;;;;;;5095418;28;20047;-72
2021/08/14 06:58:49;;;;;;;12.63;9.45;;;26.60;59.50;;;;;;5096071;28;20031;-72
2021/08/14 07:01:15;;;;;;;14.55;8.70;;;26.60;59.70;;;;;;5095960;28;20426;-70
2021/08/14 07:03:41;;;;;;;11.15;8.00;;;26.60;59.80;;;;;;5095850;28;20028;-71
2021/08/14 07:06:07;;;;;;;10.73;7.88;;;26.70;59.90;;;;;;5095383;28;20020;-73
2021/08/14 07:08:33;;;;;;;11.00;8.07;;;26.80;59.90;;;;;;5077866;28;20031;-70
2021/08/14 07:10:59;;;;;;;12.25;8.50;;;26.80;59.80;;;;;;5077686;28;20111;-70
2021/08/14 07:13:25;;;;;;;11.10;7.75;;;26.90;59.60;;;;;;5095863;28;20085;-71
2021/08/14 07:15:50;;;;;;;13.95;7.25;;;27.00;59.40;;;;;;5095802;28;20103;-70
2021/08/14 07:18:16;;;;;;;12.98;7.80;;;27.00;59.20;;;;;;5077502;28;20063;-73
2021/08/14 07:20:42;;;;;;;12.77;7.50;;;27.10;59.30;;;;;;5094903;28;20036;-69
2021/08/14 07:23:08;;;;;;;10.55;6.72;;;27.10;59.00;;;;;;5095488;28;20063;-72
2021/08/14 07:25:34;;;;;;;14.65;7.25;;;27.20;58.90;;;;;;5095584;28;20017;-72
2021/08/14 07:27:59;;;;;;;15.55;7.28;;;27.30;58.70;;;;;;5095006;28;20440;-73
2021/08/14 07:30:25;;;;;;;12.32;7.13;;;27.30;58.40;;;;;;5095478;28;20024;-70
2021/08/14 07:32:51;;;;;;;10.80;6.80;;;27.40;58.30;;;;;;5095418;28;20113;-72
2021/08/14 07:35:17;;;;;;;13.90;6.85;;;27.50;57.90;;;;;;5081682;28;20513;-70
2021/08/14 07:37:50;;;;;;;9.18;6.38;;;27.50;57.90;;;;;;5075141;28;20482;-72
2021/08/14 07:40:22;;;;;;;12.27;6.22;;;27.60;57.50;;;;;;5057335;28;20463;-72
2021/08/14 07:42:48;;;;;;;9.68;6.43;;;27.70;57.60;;;;;;5074988;28;20390;-72
2021/08/14 07:45:17;;;;;;;8.38;5.93;;;27.70;57.10;;;;;;5074885;28;20035;-71
2021/08/14 07:47:45;;;;;;;10.27;5.68;;;27.80;57.30;;;;;;5074920;28;20043;-70
2021/08/14 07:50:14;;;;;;;7.95;4.75;;;27.90;56.70;;;;;;5077121;28;20016;-70
2021/08/14 07:52:40;;;;;;;10.10;5.63;;;27.90;56.20;;;;;;5075231;28;20024;-72
2021/08/14 07:55:07;;;;;;;9.57;5.80;;;28.00;55.60;;;;;;5074594;28;20080;-70
2021/08/14 07:57:36;;;;;;;8.98;5.53;;;28.10;55.80;;;;;;5090286;28;20077;-72
2021/08/14 08:00:02;;;;;;;8.63;5.72;;;28.20;55.40;;;;;;5094983;28;20043;-71
2021/08/14 08:02:28;;;;;;;9.07;5.55;;;28.20;54.90;;;;;;5094734;28;20028;-71
2021/08/14 08:04:54;;;;;;;10.18;6.15;;;28.20;54.60;;;;;;5071690;28;20043;-71
2021/08/14 08:07:19;;;;;;;10.93;5.90;;;28.30;54.70;;;;;;5060296;28;20060;-71
2021/08/14 08:09:45;;;;;;;8.98;5.65;;;28.30;54.40;;;;;;5077130;28;20100;-72
2021/08/14 08:12:11;;;;;;;9.55;5.75;;;28.30;54.40;;;;;;5094635;28;20371;-70
2021/08/14 08:14:37;;;;;;;10.73;5.30;;;28.30;54.10;;;;;;5076038;28;20035;-70
2021/08/14 08:17:02;;;;;;;12.95;5.97;;;28.40;54.20;;;;;;5094612;28;20322;-72
2021/08/14 08:19:28;;;;;;;11.98;6.10;;;28.50;53.80;;;;;;5094275;28;20081;-70
2021/08/14 08:21:55;;;;;;;15.60;6.95;;;28.60;53.90;;;;;;5094499;28;20052;-72
2021/08/14 08:24:20;;;;;;;11.60;5.80;;;28.60;53.00;;;;;;5094417;28;20020;-72
2021/08/14 08:26:46;;;;;;;13.13;6.15;;;28.60;53.40;;;;;;5094464;28;20028;-70
2021/08/14 08:29:12;;;;;;;6.93;5.03;;;28.70;53.00;;;;;;5094154;28;20032;-71
2021/08/14 08:31:38;;;;;;;22.45;5.72;;;28.70;53.40;;;;;;5093406;28;20397;-71
2021/08/14 08:34:03;;;;;;;8.88;5.57;;;28.80;53.30;;;;;;5084332;28;20431;-71
2021/08/14 08:36:29;;;;;;;8.38;5.30;;;28.80;53.00;;;;;;5093877;28;20039;-71
2021/08/14 08:38:55;;;;;;;25.73;6.53;;;28.90;52.90;;;;;;5093349;28;20032;-72
2021/08/14 08:41:20;;;;;;;12.18;6.03;;;28.90;52.50;;;;;;5075546;28;20067;-71
2021/08/14 08:43:46;;;;;;;8.45;5.45;;;28.90;53.00;;;;;;5073742;28;20434;-71
2021/08/14 08:46:12;;;;;;;11.23;6.28;;;29.00;52.90;;;;;;5073690;28;20103;-70
2021/08/14 08:48:46;;;;;;;8.55;6.10;;;29.00;52.50;;;;;;5089349;28;20115;-71
2021/08/14 08:51:12;;;;;;;;;;;29.10;52.30;;;;;;5072386;28;20052;-72
2021/08/14 08:53:38;;;;;;;10.15;6.00;;;29.20;53.30;;;;;;5090587;28;19968;-72
2021/08/14 08:56:04;;;;;;;9.23;5.88;;;29.20;52.30;;;;;;5087311;28;20421;-71
2021/08/14 08:58:35;;;;;;;12.25;6.15;;;29.30;52.40;;;;;;5091274;28;20136;-72
2021/08/14 09:01:01;;;;;;;11.07;7.28;;;29.30;52.00;;;;;;5073506;28;20051;-73
2021/08/14 09:03:30;;;;;;;13.48;8.23;;;29.30;51.90;;;;;;5076619;28;20028;-73
2021/08/14 09:05:57;;;;;;;10.90;6.85;;;29.40;51.90;;;;;;5092002;28;20066;-72
2021/08/14 09:08:23;;;;;;;9.48;7.00;;;29.40;52.20;;;;;;5093615;28;20470;-73
2021/08/14 09:10:50;;;;;;;9.25;6.63;;;29.40;52.20;;;;;;5090428;28;20028;-72
2021/08/14 09:13:19;;;;;;;11.25;6.72;;;29.50;52.30;;;;;;5091072;28;20043;-72
2021/08/14 09:15:46;;;;;;;16.25;7.50;;;29.50;51.90;;;;;;5085301;28;20024;-70
2021/08/14 09:18:14;;;;;;;11.35;7.47;;;29.60;52.00;;;;;;5086171;28;20427;-70
2021/08/14 09:20:54;;;;;;;13.95;7.32;;;29.60;51.70;;;;;;5093110;28;20508;-71
2021/08/14 09:23:24;;;;;;;10.07;7.20;;;29.60;52.00;;;;;;5073134;28;20028;-70
2021/08/14 09:25:52;;;;;;;10.18;7.70;;;29.60;51.70;;;;;;5059373;28;20494;-70
2021/08/14 09:28:27;;;;;;;12.77;7.93;;;29.70;52.20;;;;;;5088546;28;20123;-72
2021/08/14 09:30:59;;;;;;;18.13;9.15;;;29.80;51.90;;;;;;5091995;28;20381;-72
2021/08/14 09:33:31;;;;;;;11.70;7.70;;;29.80;51.10;;;;;;5092890;28;20035;-70
2021/08/14 09:35:58;;;;;;;8.75;7.22;;;29.90;51.10;;;;;;5092969;28;20027;-69
2021/08/14 09:38:41;;;;;;;9.02;7.38;;;29.90;51.50;;;;;;5087923;28;20168;-74
2021/08/14 09:41:17;;;;;;;11.07;7.72;;;29.90;51.40;;;;;;5082519;28;20065;-72
2021/08/14 09:43:44;;;;;;;16.52;7.63;;;30.00;51.30;;;;;;5087254;28;20024;-73
2021/08/14 09:46:11;;;;;;;11.02;8.13;;;30.00;51.10;;;;;;5072943;28;20557;-73
2021/08/14 09:48:37;;;;;;;12.15;7.70;;;30.10;51.20;;;;;;5073992;28;20035;-74
2021/08/14 09:51:03;;;;;;;10.93;7.15;;;30.10;50.90;;;;;;5080049;28;20028;-74
2021/08/14 09:53:30;;;;;;;10.23;7.30;;;30.10;50.90;;;;;;5081733;28;20162;-74
2021/08/14 09:56:08;;;;;;;11.35;7.15;;;30.20;50.70;;;;;;5087881;28;20028;-73
2021/08/14 09:58:35;;;;;;;8.25;6.60;;;30.20;50.60;;;;;;5089574;28;20025;-71
2021/08/14 10:01:02;;;;;;;11.70;7.10;;;30.30;50.40;;;;;;5092134;28;20374;-71
2021/08/14 10:03:32;;;;;;;10.32;7.05;;;30.40;50.00;;;;;;5092869;28;20069;-72
2021/08/14 10:05:59;;;;;;;10.88;6.90;;;30.40;49.70;;;;;;5092971;28;20024;-71
2021/08/14 10:08:26;;;;;;;15.90;6.85;;;30.50;49.60;;;;;;5092510;28;20101;-73
2021/08/14 10:10:53;;;;;;;10.95;6.47;;;30.50;49.30;;;;;;5088376;28;20016;-72
2021/08/14 10:13:20;;;;;;;10.20;6.15;;;30.60;49.00;;;;;;5077944;28;20121;-71
2021/08/14 10:15:45;;;;;;;19.20;7.47;;;30.70;48.80;;;;;;5091660;28;20428;-74
2021/08/14 10:18:11;;;;;;;12.95;7.70;;;30.70;49.00;;;;;;5092207;28;20032;-72
2021/08/14 10:20:37;;;;;;;9.90;6.07;;;30.80;48.90;;;;;;5092794;28;20051;-72
2021/08/14 10:23:07;;;;;;;8.32;6.07;;;30.80;49.10;;;;;;5074523;28;20449;-70
2021/08/14 10:25:35;;;;;;;8.90;6.43;;;30.90;48.40;;;;;;5092715;28;20031;-72
2021/08/14 10:28:04;;;;;;;15.98;6.75;;;30.90;48.70;;;;;;5092747;28;20381;-71
2021/08/14 10:30:36;;;;;;;8.95;7.00;;;31.00;48.30;;;;;;5092630;28;20035;-71
2021/08/14 10:33:03;;;;;;;9.30;6.40;;;31.00;48.30;;;;;;5074386;28;20103;-71
2021/08/14 10:35:28;;;;;;;10.88;6.65;;;31.00;48.40;;;;;;5092618;28;20020;-70
2021/08/14 10:37:54;;;;;;;8.13;5.88;;;31.10;49.00;;;;;;5092577;28;20097;-72
2021/08/14 10:40:20;;;;;;;11.52;5.93;;;31.10;47.70;;;;;;5092687;28;20024;-71
2021/08/14 10:42:49;;;;;;;9.63;6.55;;;31.20;46.90;;;;;;5074315;28;20027;-72
2021/08/14 10:45:17;;;;;;;10.65;6.85;;;31.20;46.50;;;;;;5092492;28;20023;-72
2021/08/14 10:47:47;;;;;;;13.68;6.25;;;31.30;47.00;;;;;;5092496;28;20031;-73
2021/08/14 10:50:33;;;;;;;12.80;6.15;;;31.40;47.20;;;;;;5074402;28;20051;-73
2021/08/14 10:53:11;;;;;;;8.93;5.60;;;31.40;47.40;;;;;;5067137;28;20040;-71
2021/08/14 10:55:55;;;;;;;10.40;6.28;;;31.50;47.10;;;;;;5092105;28;20448;-71
2021/08/14 10:58:27;;;;;;;7.80;5.32;;;31.50;46.40;;;;;;5092486;28;20110;-72
2021/08/14 11:01:14;;;;;;;10.77;5.63;;;31.60;46.40;;;;;;5092395;28;20470;-70
2021/08/14 11:03:40;;;;;;;8.70;6.38;;;31.70;46.20;;;;;;5094521;28;20024;-71
2021/08/14 11:06:25;;;;;;;7.97;5.90;;;31.70;46.10;;;;;;5095927;28;20386;-70
2021/08/14 11:09:32;;;;;;;17.25;5.90;;;31.70;46.40;;;;;;5093680;28;20024;-71
2021/08/14 11:12:00;;;;;;;13.15;6.78;;;31.80;46.10;;;;;;5075643;28;20432;-72
2021/08/14 11:14:42;;;;;;;9.23;6.15;;;31.90;45.70;;;;;;5089057;28;20047;-72
2021/08/14 11:17:08;;;;;;;7.50;5.90;;;31.90;46.20;;;;;;5093379;28;20028;-73
2021/08/14 11:19:52;;;;;;;7.88;5.30;;;31.90;44.80;;;;;;5078953;28;20052;-74
2021/08/14 11:22:24;;;;;;;10.98;6.28;;;32.00;45.00;;;;;;5081183;28;20541;-72
2021/08/14 11:24:52;;;;;;;8.05;5.78;;;32.00;43.70;;;;;;5081171;28;20024;-74
2021/08/14 11:27:19;;;;;;;7.90;5.97;;;32.00;42.90;;;;;;5081172;28;20374;-71
2021/08/14 11:29:46;;;;;;;6.63;5.22;;;32.00;43.40;;;;;;5080926;28;20016;-71
2021/08/14 11:32:13;;;;;;;8.32;5.68;;;32.10;43.00;;;;;;5080386;28;20024;-73
2021/08/14 11:34:40;;;;;;;7.72;5.03;;;32.10;42.90;;;;;;5062289;28;20051;-72
2021/08/14 11:37:06;;;;;;;11.57;5.35;;;32.20;43.10;;;;;;5062234;28;20423;-71
2021/08/14 11:39:32;;;;;;;8.60;5.22;;;32.20;43.00;;;;;;5080907;28;20108;-73
2021/08/14 11:41:58;;;;;;;13.57;4.97;;;32.30;43.30;;;;;;5081003;28;20516;-71
2021/08/14 11:44:27;;;;;;;11.55;5.88;;;32.30;43.20;;;;;;5086901;28;20033;-72
2021/08/14 11:47:09;;;;;;;8.27;5.53;;;32.40;43.20;;;;;;5080765;28;20016;-71
2021/08/14 11:49:56;;;;;;;6.45;5.45;;;32.40;42.50;;;;;;5087560;28;20023;-73
2021/08/14 11:52:23;;;;;;;8.40;5.55;;;32.50;42.70;;;;;;5086798;28;20377;-73
2021/08/14 11:55:10;;;;;;;7.40;5.63;;;32.50;42.20;;;;;;5086709;28;20032;-73
2021/08/14 11:57:39;;;;;;;10.77;5.43;;;32.60;42.00;;;;;;5087450;28;20048;-71
2021/08/14 12:00:33;;;;;;;7.07;4.78;;;32.60;42.30;;;;;;5084442;28;20043;-71
2021/08/14 12:03:14;;;;;;;10.43;5.78;;;32.60;42.70;;;;;;5079963;28;20055;-71
2021/08/14 12:05:43;;;;;;;12.32;5.45;;;32.70;42.10;;;;;;5085993;28;20029;-72
2021/08/14 12:08:27;;;;;;;7.60;5.18;;;32.80;41.40;;;;;;5074593;28;20017;-72
2021/08/14 12:10:53;;;;;;;8.10;5.00;;;32.80;42.00;;;;;;5089442;28;20027;-72
2021/08/14 12:13:20;;;;;;;10.57;5.72;;;32.90;41.70;;;;;;5094425;28;20012;-73
2021/08/14 12:15:48;;;;;;;9.52;5.60;;;32.90;41.20;;;;;;5094501;28;20082;-72
2021/08/14 12:18:14;;;;;;;6.85;5.00;;;32.90;41.40;;;;;;5094606;28;20020;-73
2021/08/14 12:20:42;;;;;;;6.90;5.10;;;33.00;41.80;;;;;;5094660;28;20024;-71
2021/08/14 12:23:22;;;;;;;17.08;5.70;;;33.00;41.40;;;;;;5094470;28;20020;-72
2021/08/14 12:25:56;;;;;;;12.77;5.55;;;33.00;41.70;;;;;;5094488;28;20016;-73
2021/08/14 12:28:30;;;;;;;11.68;5.32;;;33.00;40.20;;;;;;5076295;28;20024;-71
2021/08/14 12:30:58;;;;;;;8.13;5.47;;;33.00;40.70;;;;;;5094453;28;20054;-73
2021/08/14 12:33:29;;;;;;;7.93;5.32;;;33.00;40.40;;;;;;5094308;28;20024;-72
2021/08/14 12:36:13;;;;;;;8.23;5.07;;;33.10;41.00;;;;;;5094350;28;20020;-73
2021/08/14 12:38:48;;;;;;;9.00;5.10;;;33.10;40.90;;;;;;5074017;28;20028;-73
2021/08/14 12:41:18;;;;;;;8.02;4.93;;;33.20;40.40;;;;;;5056332;28;20428;-72
2021/08/14 12:43:49;;;;;;;9.13;4.85;;;33.20;39.90;;;;;;5073781;28;20513;-73